Time;durP1;ratioP1;P1;durP2;ratioP2;P2;SDS_P1;SDS_P2;PMS_P1;PMS_P2;Temp;Humidity;BMP_temperature;BMP_pressure;BME280_temperature;BME280_humidity;BME280_pressure;Samples;Min_cycle;Max_cycle;Signal;HPM_P1;HPM_P2
2022/04/02 00:01:16;;;;;;;;;;;3.80;79.40;;;;;;6256645;22;20298;-88
2022/04/02 00:03:57;;;;;;;;;;;3.80;79.00;;;;;;6225824;22;19907;-88
2022/04/02 00:06:35;;;;;;;;;;;3.80;78.80;;;;;;6251215;22;20302;-88
2022/04/02 00:11:56;;;;;;;;;;;3.70;78.70;;;;;;6250823;22;19910;-90
2022/04/02 00:14:27;;;;;;;;;;;3.70;78.90;;;;;;6251208;22;19903;-89
2022/04/02 00:16:58;;;;;;;;;;;3.70;78.60;;;;;;6226071;22;19911;-88
2022/04/02 00:19:27;;;;;;;;;;;3.60;78.90;;;;;;6277780;22;20306;-88
2022/04/02 00:22:10;;;;;;;;;;;3.60;78.60;;;;;;6250879;22;20340;-88
2022/04/02 00:24:38;;;;;;;;;;;3.70;79.00;;;;;;6250432;22;19907;-88
2022/04/02 00:27:18;;;;;;;;;;;3.70;79.10;;;;;;6250409;22;19949;-87
2022/04/02 00:29:54;;;;;;;;;;;3.60;78.70;;;;;;6226993;22;19907;-88
2022/04/02 00:32:22;;;;;;;;;;;3.60;79.10;;;;;;6250694;22;20381;-89
2022/04/02 00:35:17;;;;;;;;;;;;;;;;;;;;;
2022/04/02 00:37:58;;;;;;;;;;;3.60;79.10;;;;;;6255031;22;19999;-88
2022/04/02 00:40:42;;;;;;;;;;;;;;;;;;;;;
2022/04/02 00:43:27;;;;;;;;;;;3.60;79.00;;;;;;6277924;22;19986;-88
2022/04/02 00:45:56;;;;;;;;;;;3.60;79.20;;;;;;6250929;22;19915;-88
2022/04/02 00:48:36;;;;;;;;;;;3.60;79.10;;;;;;6250500;22;19969;-89
2022/04/02 00:51:05;;;;;;;;;;;3.60;79.30;;;;;;6227341;22;19907;-88
2022/04/02 00:53:48;;;;;;;;;;;3.60;79.30;;;;;;6250778;22;19910;-89
2022/04/02 00:56:17;;;;;;;;;;;3.60;79.50;;;;;;6277910;22;19907;-88
2022/04/02 01:01:44;;;;;;;;;;;3.60;79.30;;;;;;6278237;22;19927;-87
2022/04/02 01:04:12;;;;;;;;;;;3.60;79.10;;;;;;6253847;22;19907;-88
2022/04/02 01:06:59;;;;;;;;;;;;;;;;;;;;;
2022/04/02 01:09:36;;;;;;;;;;;3.50;79.00;;;;;;6278284;22;19970;-87
2022/04/02 01:12:25;;;;;;;;;;;3.50;79.20;;;;;;6229503;22;19938;-88
2022/04/02 01:14:58;;;;;;;;;;;3.50;79.30;;;;;;6245688;22;19894;-88
2022/04/02 01:17:31;;;;;;;;;;;3.50;79.40;;;;;;6293665;22;19953;-90
2022/04/02 01:20:04;;;;;;;;;;;3.50;79.30;;;;;;6259336;22;19942;-88
2022/04/02 01:22:39;;;;;;;;;;;3.50;79.10;;;;;;6255913;22;19911;-89
2022/04/02 01:25:08;;;;;;;;;;;3.50;79.30;;;;;;6228145;22;19913;-87
2022/04/02 01:27:37;;;;;;;;;;;3.50;79.20;;;;;;6226851;22;19917;-90
2022/04/02 01:30:16;;;;;;;;;;;3.40;79.30;;;;;;6252810;22;19907;-87
2022/04/02 01:32:54;;;;;;;;;;;;;;;;;;;;;
2022/04/02 01:35:31;;;;;;;;;;;;;;;;;;;;;
2022/04/02 01:38:09;;;;;;;;;;;;;;;;;;;;;
2022/04/02 01:41:01;;;;;;;;;;;3.40;79.50;;;;;;6278714;22;20286;-88
2022/04/02 01:43:44;;;;;;;;;;;;;;;;;;;;;
2022/04/02 01:46:17;;;;;;;;;;;3.50;79.70;;;;;;6278954;22;19990;-88
2022/04/02 01:48:45;;;;;;;;;;;3.50;79.20;;;;;;6250251;22;20306;-88
2022/04/02 01:51:21;;;;;;;;;;;3.50;79.30;;;;;;6251615;22;20333;-88
2022/04/02 01:53:59;;;;;;;;;;;;;;;;;;;;;
2022/04/02 01:57:03;;;;;;;;;;;3.50;79.60;;;;;;6254018;22;19990;-89
2022/04/02 01:59:39;;;;;;;;;;;3.50;79.40;;;;;;6244661;22;19907;-88
2022/04/02 02:02:05;;;;;;;;;;;3.50;79.50;;;;;;6227475;22;19915;-88
2022/04/02 02:04:40;;;;;;;;;;;3.50;79.10;;;;;;6252062;22;19930;-88
2022/04/02 02:07:08;;;;;;;;;;;3.50;79.00;;;;;;6251814;22;19943;-88
2022/04/02 02:09:34;;;;;;;;;;;3.50;79.30;;;;;;6250732;22;20309;-88
2022/04/02 02:12:02;;;;;;;;;;;3.50;79.20;;;;;;6252019;22;19903;-88
2022/04/02 02:14:31;;;;;;;;;;;3.50;79.20;;;;;;6226455;22;20321;-88
2022/04/02 02:17:02;;;;;;;;;;;3.40;79.40;;;;;;6251531;22;19911;-88
2022/04/02 02:19:37;;;;;;;;;;;3.40;79.30;;;;;;6226641;22;19911;-87
2022/04/02 02:22:13;;;;;;;;;;;;;;;;;;;;;
2022/04/02 02:24:49;;;;;;;;;;;;;;;;;;;;;
2022/04/02 02:27:18;;;;;;;;;;;3.40;79.40;;;;;;6279040;22;19986;-89
2022/04/02 02:30:04;;;;;;;;;;;3.50;79.40;;;;;;6227550;22;19927;-88
2022/04/02 02:32:40;;;;;;;;;;;3.50;79.30;;;;;;6279696;22;19903;-89
2022/04/02 02:38:14;;;;;;;;;;;3.40;79.40;;;;;;6283413;22;19903;-88
2022/04/02 02:43:25;;;;;;;;;;;3.40;79.50;;;;;;6304544;22;19911;-89
2022/04/02 02:46:06;;;;;;;;;;;;;;;;;;;;;
2022/04/02 02:48:38;;;;;;;;;;;3.40;79.50;;;;;;6279326;22;20359;-90
2022/04/02 02:51:26;;;;;;;;;;;3.50;79.70;;;;;;6226030;22;19934;-88
2022/04/02 02:54:19;;;;;;;;;;;3.40;79.50;;;;;;6251427;22;19974;-88
2022/04/02 02:56:58;;;;;;;;;;;3.40;79.50;;;;;;6250938;22;19987;-89
2022/04/02 02:59:27;;;;;;;;;;;3.40;79.50;;;;;;6227602;22;20266;-89
2022/04/02 03:02:11;;;;;;;;;;;;;;;;;;;;;
2022/04/02 03:07:41;;;;;;;;;;;3.30;79.80;;;;;;6200369;22;20287;-88
2022/04/02 03:10:30;;;;;;;;;;;3.30;79.60;;;;;;6250811;22;19909;-88
2022/04/02 03:13:06;;;;;;;;;;;3.30;79.80;;;;;;6227401;22;19911;-88
2022/04/02 03:15:54;;;;;;;;;;;3.30;79.80;;;;;;6226852;22;19912;-88
2022/04/02 03:18:36;;;;;;;;;;;3.30;79.80;;;;;;6250072;22;19939;-88
2022/04/02 03:21:14;;;;;;;;;;;;;;;;;;;;;
2022/04/02 03:26:37;;;;;;;;;;;3.30;79.90;;;;;;6278359;22;20310;-88
2022/04/02 03:29:08;;;;;;;;;;;3.30;80.20;;;;;;6251206;22;19910;-88
2022/04/02 03:31:44;;;;;;;;;;;3.30;80.30;;;;;;6251616;22;19979;-89
2022/04/02 03:34:12;;;;;;;;;;;3.30;80.30;;;;;;6251055;22;19903;-88
2022/04/02 03:36:38;;;;;;;;;;;3.30;80.40;;;;;;6250990;22;20002;-89
2022/04/02 03:39:19;;;;;;;;;;;;;;;;;;;;;
2022/04/02 03:41:55;;;;;;;;;;;3.40;80.40;;;;;;6277414;22;19986;-87
2022/04/02 03:44:23;;;;;;;;;;;3.40;80.30;;;;;;6249904;22;19930;-87
2022/04/02 03:49:47;;;;;;;;;;;;;;;;;;;;;
2022/04/02 03:55:05;;;;;;;;;;;3.20;80.40;;;;;;6279704;22;19911;-88
2022/04/02 03:57:34;;;;;;;;;;;3.20;80.70;;;;;;6292035;22;19959;-87
2022/04/02 04:00:09;;;;;;;;;;;3.20;80.90;;;;;;6261611;22;20001;-87
2022/04/02 04:02:51;;;;;;;;;;;3.20;80.90;;;;;;6277276;22;19903;-88
2022/04/02 04:05:28;;;;;;;;;;;;;;;;;;;;;
2022/04/02 04:08:06;;;;;;;;;;;;;;;;;;;;;
2022/04/02 04:10:32;;;;;;;;;;;3.20;81.10;;;;;;6290210;22;19904;-87
2022/04/02 04:13:15;;;;;;;;;;;3.20;81.00;;;;;;6250478;22;20329;-88
2022/04/02 04:15:44;;;;;;;;;;;3.10;81.10;;;;;;6251214;22;19942;-88
2022/04/02 04:18:10;;;;;;;;;;;3.20;81.20;;;;;;6251020;22;19968;-88
2022/04/02 04:20:45;;;;;;;;;;;3.10;81.30;;;;;;6250507;22;20361;-87
2022/04/02 04:23:17;;;;;;;;;;;3.10;81.20;;;;;;6253471;22;20318;-88
2022/04/02 04:25:55;;;;;;;;;;;3.10;81.50;;;;;;6225493;22;19914;-88
2022/04/02 04:28:54;;;;;;;;;;;;;;;;;;;;;
2022/04/02 04:31:34;;;;;;;;;;;3.10;81.50;;;;;;6269177;22;19982;-89
2022/04/02 04:34:00;;;;;;;;;;;3.10;81.60;;;;;;6250490;22;19904;-88
2022/04/02 04:36:53;;;;;;;;;;;3.10;81.70;;;;;;6251105;22;19907;-88
2022/04/02 04:39:37;;;;;;;;;;;3.10;81.50;;;;;;6250334;22;19933;-87
2022/04/02 04:42:14;;;;;;;;;;;3.00;81.50;;;;;;6253075;22;20006;-88
2022/04/02 04:45:19;;;;;;;;;;;3.10;81.70;;;;;;6251407;22;19945;-88
2022/04/02 04:47:49;;;;;;;;;;;3.00;81.50;;;;;;6254485;22;19911;-88
2022/04/02 04:50:36;;;;;;;;;;;;;;;;;;;;;
2022/04/02 04:53:08;;;;;;;;;;;3.00;81.60;;;;;;6279081;22;19986;-88
2022/04/02 04:55:33;;;;;;;;;;;3.00;81.70;;;;;;6251942;22;20318;-88
2022/04/02 04:58:17;;;;;;;;;;;3.00;81.60;;;;;;6252260;22;19933;-87
2022/04/02 05:00:55;;;;;;;;;;;;;;;;;;;;;
2022/04/02 05:03:49;;;;;;;;;;;;;;;;;;;;;
2022/04/02 05:06:20;;;;;;;;;;;3.00;81.70;;;;;;6255563;22;20391;-88
2022/04/02 05:08:46;;;;;;;;;;;3.00;81.70;;;;;;6253478;22;19918;-90
2022/04/02 05:11:23;;;;;;;;;;;3.00;81.80;;;;;;6252871;22;19904;-87
2022/04/02 05:14:21;;;;;;;;;;;3.00;82.00;;;;;;6253701;22;19985;-88
2022/04/02 05:16:56;;;;;;;;;;;;;;;;;;;;;
2022/04/02 05:19:27;;;;;;;;;;;3.00;82.10;;;;;;6267805;22;19934;-88
2022/04/02 05:22:02;;;;;;;;;;;3.10;82.20;;;;;;6276632;22;19902;-89
2022/04/02 05:24:48;;;;;;;;;;;3.00;82.20;;;;;;6280902;22;19966;-87
2022/04/02 05:27:34;;;;;;;;;;;;;;;;;;;;;
2022/04/02 05:30:06;;;;;;;;;;;3.10;81.90;;;;;;6288629;22;19927;-84
2022/04/02 05:32:34;;;;;;;;;;;3.10;82.10;;;;;;6252091;22;19942;-85
2022/04/02 05:35:00;;;;;;;;;;;3.10;82.30;;;;;;6227140;22;19908;-87
2022/04/02 05:37:33;;;;;;;;;;;3.10;82.30;;;;;;6252513;22;19916;-88
2022/04/02 05:40:10;;;;;;;;;;;3.10;82.30;;;;;;6225834;22;19911;-88
2022/04/02 05:42:51;;;;;;;;;;;3.10;82.40;;;;;;6250551;22;19938;-88
2022/04/02 05:45:35;;;;;;;;;;;3.00;82.30;;;;;;6226817;22;19911;-88
2022/04/02 05:48:21;;;;;;;;;;;;;;;;;;;;;
2022/04/02 05:50:50;;;;;;;;;;;3.00;82.50;;;;;;6279200;22;19975;-87
2022/04/02 05:59:36;;;;;;;;;;;;;;;;;;;;;
2022/04/02 06:02:27;;;;;;;;;;;3.00;83.10;;;;;;6279059;22;19986;-87
2022/04/02 06:04:54;;;;;;;;;;;3.00;83.10;;;;;;6230351;22;19915;-89
2022/04/02 06:07:36;;;;;;;;;;;;;;;;;;;;;
2022/04/02 06:10:14;;;;;;;;;;;3.00;83.50;;;;;;6278542;22;19990;-87
2022/04/02 06:12:51;;;;;;;;;;;3.00;83.50;;;;;;6278786;22;19903;-86
2022/04/02 06:15:37;;;;;;;;;;;2.90;83.60;;;;;;6251651;22;19903;-88
2022/04/02 06:21:05;;;;;;;;;;;;;;;;;;;;;
2022/04/02 06:27:19;;;;;;;;;;;;;;;;;;;;;
2022/04/02 06:30:10;;;;;;;;;;;3.10;83.90;;;;;;6256158;22;19978;-89
2022/04/02 06:35:34;;;;;;;;;;;;;;;;;;;;;
2022/04/02 06:38:30;;;;;;;;;;;;;;;;;;;;;
2022/04/02 06:41:17;;;;;;;;;;;3.10;84.20;;;;;;6264081;22;19974;-89
2022/04/02 06:44:13;;;;;;;;;;;;;;;;;;;;;
2022/04/02 06:47:01;;;;;;;;;;;;;;;;;;;;;
2022/04/02 06:49:55;;;;;;;;;;;;;;;;;;;;;
2022/04/02 06:52:23;;;;;;;;;;;3.20;84.30;;;;;;6279823;22;19908;-89
2022/04/02 06:55:11;;;;;;;;;;;3.10;84.40;;;;;;6264795;22;20436;-90
2022/04/02 06:57:43;;;;;;;;;;;3.20;84.70;;;;;;6251540;22;19912;-90
2022/04/02 07:00:12;;;;;;;;;;;3.20;84.80;;;;;;6278929;22;19908;-89
2022/04/02 07:02:42;;;;;;;;;;;3.20;84.50;;;;;;6251440;22;19968;-89
2022/04/02 07:05:10;;;;;;;;;;;3.20;84.60;;;;;;6278864;22;19908;-90
2022/04/02 07:07:46;;;;;;;;;;;;;;;;;;;;;
2022/04/02 07:10:18;;;;;;;;;;;3.20;84.80;;;;;;6277856;22;19990;-89
2022/04/02 07:12:48;;;;;;;;;;;3.30;84.80;;;;;;6251765;22;19943;-90
2022/04/02 07:15:17;;;;;;;;;;;3.30;84.90;;;;;;6251542;22;19957;-89
2022/04/02 07:17:49;;;;;;;;;;;3.40;85.00;;;;;;6249841;22;19985;-89
2022/04/02 07:20:18;;;;;;;;;;;3.40;84.90;;;;;;6226977;22;19914;-89
2022/04/02 07:22:50;;;;;;;;;;;3.40;84.90;;;;;;6227284;22;19914;-90
2022/04/02 07:25:23;;;;;;;;;;;3.50;84.90;;;;;;6251282;22;20314;-87
2022/04/02 07:27:59;;;;;;;;;;;;;;;;;;;;;
2022/04/02 07:30:33;;;;;;;;;;;3.60;84.60;;;;;;6278779;22;20357;-87
2022/04/02 07:33:04;;;;;;;;;;;3.70;84.70;;;;;;6226348;22;19986;-89
2022/04/02 07:35:47;;;;;;;;;;;3.70;84.60;;;;;;6227277;22;19907;-87
2022/04/02 07:41:24;;;;;;;;;;;3.80;84.40;;;;;;6251978;22;19954;-87
2022/04/02 07:44:09;;;;;;;;;;;3.80;84.70;;;;;;6197513;22;20338;-89
2022/04/02 07:46:40;;;;;;;;;;;3.90;84.50;;;;;;6248157;22;19903;-88
2022/04/02 07:49:07;;;;;;;;;;;3.90;84.60;;;;;;6251457;22;19903;-87
2022/04/02 07:51:40;;;;;;;;;;;3.90;84.80;;;;;;6278118;22;19946;-88
2022/04/02 07:54:07;;;;;;;;;;;4.00;84.60;;;;;;6251516;22;19953;-88
2022/04/02 07:56:48;;;;;;;;;;;4.00;84.60;;;;;;6251538;22;19908;-88
2022/04/02 07:59:34;;;;;;;;;;;4.00;84.50;;;;;;6278008;22;19984;-88
2022/04/02 08:05:07;;;;;;;;;;;;;;;;;;;;;
2022/04/02 08:07:49;;;;;;;;;;;;;;;;;;;;;
2022/04/02 08:10:28;;;;;;;;;;;4.20;84.10;;;;;;6261748;22;19915;-87
2022/04/02 08:13:29;;;;;;;;;;;;;;;;;;;;;
2022/04/02 08:18:37;;;;;;;;;;;4.30;83.40;;;;;;6293044;22;19907;-87
2022/04/02 08:21:11;;;;;;;;;;;4.30;83.50;;;;;;6271289;22;19911;-87
2022/04/02 08:23:39;;;;;;;;;;;4.30;83.60;;;;;;6255518;22;19953;-89
2022/04/02 08:26:19;;;;;;;;;;;4.40;83.80;;;;;;6249990;22;19903;-88
2022/04/02 08:28:57;;;;;;;;;;;4.50;83.40;;;;;;6251461;22;19961;-87
2022/04/02 08:31:44;;;;;;;;;;;4.60;83.40;;;;;;6250781;22;19920;-88
2022/04/02 08:37:31;;;;;;;;;;;4.60;83.20;;;;;;6261296;22;20225;-88
2022/04/02 08:39:57;;;;;;;;;;;4.60;82.80;;;;;;6247968;22;19908;-89
2022/04/02 08:42:44;;;;;;;;;;;4.60;83.00;;;;;;6250888;22;19915;-88
2022/04/02 08:45:33;;;;;;;;;;;;;;;;;;;;;
2022/04/02 08:48:07;;;;;;;;;;;4.70;82.70;;;;;;6277968;22;19990;-87
2022/04/02 08:50:46;;;;;;;;;;;;;;;;;;;;;
2022/04/02 08:53:17;;;;;;;;;;;4.80;83.50;;;;;;6278117;22;19999;-88
2022/04/02 08:55:52;;;;;;;;;;;4.90;83.10;;;;;;6251481;22;19953;-88
2022/04/02 08:58:47;;;;;;;;;;;5.00;82.80;;;;;;6250933;22;19911;-88
2022/04/02 09:01:28;;;;;;;;;;;5.00;82.70;;;;;;6277490;22;19930;-88
2022/04/02 09:04:10;;;;;;;;;;;;;;;;;;;;;
2022/04/02 09:07:00;;;;;;;;;;;5.10;82.20;;;;;;6279357;22;19947;-88
2022/04/02 09:12:43;;;;;;;;;;;5.20;81.10;;;;;;6234024;22;19910;-88
2022/04/02 09:15:13;;;;;;;;;;;5.20;81.10;;;;;;6251800;22;19903;-89
2022/04/02 09:18:12;;;;;;;;;;;;;;;;;;;;;
2022/04/02 09:20:55;;;;;;;;;;;5.40;80.70;;;;;;6279190;22;19997;-88
2022/04/02 09:23:45;;;;;;;;;;;5.40;80.30;;;;;;6251180;22;20383;-88
2022/04/02 09:26:47;;;;;;;;;;;5.40;79.70;;;;;;6277753;22;19910;-88
2022/04/02 09:32:34;;;;;;;;;;;5.40;79.10;;;;;;6207836;22;19904;-88
2022/04/02 09:35:26;;;;;;;;;;;5.40;79.30;;;;;;6283236;22;19910;-88
2022/04/02 09:38:20;;;;;;;;;;;5.40;79.20;;;;;;6279348;22;19915;-87
2022/04/02 09:40:57;;;;;;;;;;;5.30;79.20;;;;;;6264559;22;19951;-88
2022/04/02 09:43:31;;;;;;;;;;;5.30;79.30;;;;;;6278634;22;19920;-88
2022/04/02 09:46:15;;;;;;;;;;;5.30;79.30;;;;;;6263969;22;19986;-86
2022/04/02 09:49:07;;;;;;;;;;;5.30;79.30;;;;;;6265112;22;19911;-88
2022/04/02 09:54:54;;;;;;;;;;;5.30;79.50;;;;;;6290041;22;19934;-89
2022/04/02 09:57:39;;;;;;;;;;;5.40;80.20;;;;;;6264671;22;20222;-87
2022/04/02 10:00:20;;;;;;;;;;;5.50;80.60;;;;;;6265656;22;19908;-88
2022/04/02 10:03:02;;;;;;;;;;;5.60;79.50;;;;;;6266238;22;19903;-88
2022/04/02 10:06:10;;;;;;;;;;;5.60;78.10;;;;;;6265265;22;19903;-89
2022/04/02 10:09:17;;;;;;;;;;;5.60;76.80;;;;;;6114925;23;19905;-88
2022/04/02 10:11:56;;;;;;;;;;;5.60;75.10;;;;;;6291374;22;19925;-88
2022/04/02 10:14:27;;;;;;;;;;;5.60;75.30;;;;;;6266784;22;19903;-89
2022/04/02 10:16:59;;;;;;;;;;;5.60;75.10;;;;;;6268048;22;19907;-88
2022/04/02 10:19:29;;;;;;;;;;;5.60;75.50;;;;;;6298860;22;19909;-88
2022/04/02 10:22:07;;;;;;;;;;;5.60;73.80;;;;;;6278076;22;19927;-89
2022/04/02 10:24:40;;;;;;;;;;;5.60;72.70;;;;;;6277845;22;19904;-88
2022/04/02 10:27:14;;;;;;;;;;;5.50;73.00;;;;;;6278208;22;19923;-88
2022/04/02 10:29:45;;;;;;;;;;;5.50;72.80;;;;;;6272844;22;19914;-89
2022/04/02 10:32:13;;;;;;;;;;;5.60;73.70;;;;;;6272148;22;19903;-88
2022/04/02 10:34:39;;;;;;;;;;;5.70;73.80;;;;;;6279562;22;19891;-88
2022/04/02 10:37:28;;;;;;;;;;;5.80;73.10;;;;;;6277734;22;19922;-89
2022/04/02 10:40:07;;;;;;;;;;;5.80;72.50;;;;;;6266322;22;19903;-90
2022/04/02 10:43:07;;;;;;;;;;;;;;;;;;;;;
2022/04/02 10:49:09;;;;;;;;;;;5.80;71.20;;;;;;6078246;23;19930;-90
2022/04/02 11:13:43;;;;;;;;;;;;;;;;;;;;;
2022/04/02 11:17:04;;;;;;;;;;;6.10;67.80;;;;;;6135899;23;19986;-87
2022/04/02 11:28:47;;;;;;;;;;;6.50;63.30;;;;;;6251047;22;19907;-87
2022/04/02 11:31:34;;;;;;;;;;;;;;;;;;;;;
2022/04/02 11:34:14;;;;;;;;;;;6.60;62.10;;;;;;6276582;22;19974;-88
2022/04/02 11:37:10;;;;;;;;;;;;;;;;;;;;;
2022/04/02 11:39:56;;;;;;;;;;;;;;;;;;;;;
2022/04/02 11:42:59;;;;;;;;;;;;;;;;;;;;;
2022/04/02 11:45:32;;;;;;;;;;;6.70;63.90;;;;;;6277229;22;19989;-88
2022/04/02 11:48:36;;;;;;;;;;;6.70;64.00;;;;;;6251102;22;20302;-88
2022/04/02 11:51:18;;;;;;;;;;;6.70;62.80;;;;;;6187584;22;19903;-88
2022/04/02 11:54:02;;;;;;;;;;;;;;;;;;;;;
2022/04/02 11:56:50;;;;;;;;;;;6.60;62.10;;;;;;6252061;22;19993;-85
2022/04/02 11:59:26;;;;;;;;;;;6.70;61.50;;;;;;6250501;22;19907;-88
2022/04/02 12:02:32;;;;;;;;;;;6.80;60.80;;;;;;6249067;22;19903;-87
2022/04/02 12:05:16;;;;;;;;;;;6.90;61.20;;;;;;6275567;22;19994;-87
2022/04/02 12:12:00;;;;;;;;;;;;;;;;;;;;;
2022/04/02 12:15:01;;;;;;;;;;;;;;;;;;;;;
2022/04/02 12:17:27;;;;;;;;;;;7.00;61.90;;;;;;6174120;22;19969;-91
2022/04/02 12:20:14;;;;;;;;;;;;;;;;;;;;;
2022/04/02 12:22:47;;;;;;;;;;;7.00;64.20;;;;;;6253880;22;19983;-86
2022/04/02 12:25:19;;;;;;;;;;;7.00;64.80;;;;;;6225934;22;20221;-85
2022/04/02 12:28:10;;;;;;;;;;;7.10;65.40;;;;;;6279234;22;19903;-85
2022/04/02 12:30:40;;;;;;;;;;;7.10;65.40;;;;;;6260426;22;19921;-86
2022/04/02 12:33:11;;;;;;;;;;;7.10;66.10;;;;;;6273151;22;19936;-84
2022/04/02 12:35:42;;;;;;;;;;;7.10;66.60;;;;;;6297432;22;19966;-84
2022/04/02 12:38:15;;;;;;;;;;;7.10;66.70;;;;;;6250716;22;19915;-85
2022/04/02 12:40:43;;;;;;;;;;;7.00;66.00;;;;;;6266233;22;19903;-85
2022/04/02 12:43:09;;;;;;;;;;;6.80;66.10;;;;;;6226845;22;19923;-86
2022/04/02 12:45:38;;;;;;;;;;;6.60;66.30;;;;;;6250399;22;19904;-86
2022/04/02 12:48:11;;;;;;;;;;;6.50;67.10;;;;;;6250853;22;19903;-87
2022/04/02 12:50:41;;;;;;;;;;;6.40;67.70;;;;;;6249707;22;19918;-85
2022/04/02 12:53:09;;;;;;;;;;;6.30;67.90;;;;;;6250483;22;19904;-86
2022/04/02 12:55:47;;;;;;;;;;;;;;;;;;;;;
2022/04/02 12:58:21;;;;;;;;;;;6.30;68.20;;;;;;6251869;22;20305;-86
2022/04/02 13:00:46;;;;;;;;;;;6.30;68.80;;;;;;6226982;22;19938;-86
2022/04/02 13:03:26;;;;;;;;;;;6.30;69.60;;;;;;6250050;22;19903;-85
2022/04/02 13:05:54;;;;;;;;;;;6.30;70.40;;;;;;6250364;22;20307;-85
2022/04/02 13:08:32;;;;;;;;;;;6.40;70.80;;;;;;6251053;22;19938;-86
2022/04/02 13:10:59;;;;;;;;;;;6.50;71.20;;;;;;6252101;22;19985;-86
2022/04/02 13:13:45;;;;;;;;;;;6.40;70.60;;;;;;6251505;22;20226;-86
2022/04/02 13:16:14;;;;;;;;;;;6.50;70.90;;;;;;6251649;22;20316;-85
2022/04/02 13:21:34;;;;;;;;;;;6.70;69.20;;;;;;6278509;22;20009;-85
2022/04/02 13:24:12;;;;;;;;;;;6.70;68.20;;;;;;6252490;22;19903;-85
2022/04/02 13:26:41;;;;;;;;;;;6.80;68.30;;;;;;6251623;22;19914;-86
2022/04/02 13:29:34;;;;;;;;;;;6.90;67.40;;;;;;6251254;22;19903;-85
2022/04/02 13:32:07;;;;;;;;;;;7.00;66.90;;;;;;6251684;22;19990;-89
2022/04/02 13:34:42;;;;;;;;;;;7.10;66.60;;;;;;6249642;22;19909;-90
2022/04/02 13:40:16;;;;;;;;;;;7.30;65.20;;;;;;6257138;22;19978;-87
2022/04/02 13:43:26;;;;;;;;;;;7.20;63.30;;;;;;6251146;22;19922;-87
2022/04/02 13:45:55;;;;;;;;;;;7.10;62.10;;;;;;6202789;22;19904;-88
2022/04/02 13:51:12;;;;;;;;;;;7.00;63.30;;;;;;6257667;22;19910;-87
2022/04/02 13:53:51;;;;;;;;;;;7.00;62.90;;;;;;6255914;22;19904;-87
2022/04/02 13:59:20;;;;;;;;;;;7.00;63.60;;;;;;6270642;22;19937;-87
2022/04/02 14:02:12;;;;;;;;;;;6.90;64.50;;;;;;6279535;22;19891;-92
2022/04/02 14:04:41;;;;;;;;;;;6.90;64.50;;;;;;6278897;22;19934;-88
2022/04/02 14:10:13;;;;;;;;;;;6.80;64.90;;;;;;6278331;22;19903;-87
2022/04/02 14:12:59;;;;;;;;;;;;;;;;;;;;;
2022/04/02 14:15:32;;;;;;;;;;;6.80;65.80;;;;;;6278598;22;19991;-88
2022/04/02 14:18:15;;;;;;;;;;;;;;;;;;;;;
2022/04/02 14:20:44;;;;;;;;;;;6.80;65.90;;;;;;6278304;22;19982;-87
2022/04/02 14:23:49;;;;;;;;;;;6.80;66.50;;;;;;6250432;22;19982;-87
2022/04/02 14:26:39;;;;;;;;;;;6.80;66.80;;;;;;6278000;22;19903;-87
2022/04/02 14:29:17;;;;;;;;;;;6.80;67.20;;;;;;6252208;22;19953;-86
2022/04/02 14:32:28;;;;;;;;;;;;;;;;;;;;;
2022/04/02 14:35:02;;;;;;;;;;;6.70;66.50;;;;;;6278610;22;19986;-86
2022/04/02 14:37:49;;;;;;;;;;;6.70;66.50;;;;;;6251490;22;19913;-87
2022/04/02 14:40:21;;;;;;;;;;;6.80;66.30;;;;;;6251923;22;19945;-89
2022/04/02 14:42:53;;;;;;;;;;;6.80;65.40;;;;;;6250022;22;19915;-87
2022/04/02 14:45:27;;;;;;;;;;;6.80;64.40;;;;;;6251419;22;19933;-86
2022/04/02 14:48:11;;;;;;;;;;;6.70;64.10;;;;;;6251680;22;20318;-86
2022/04/02 14:51:26;;;;;;;;;;;;;;;;;;;;;
2022/04/02 14:54:02;;;;;;;;;;;6.60;65.20;;;;;;6269888;22;19978;-87
2022/04/02 14:56:46;;;;;;;;;;;6.70;65.30;;;;;;6251990;22;19918;-84
2022/04/02 14:59:31;;;;;;;;;;;;;;;;;;;;;
2022/04/02 15:02:29;;;;;;;;;;;6.80;63.40;;;;;;6279037;22;19982;-85
2022/04/02 15:05:29;;;;;;;;;;;6.80;62.80;;;;;;6250820;22;19903;-86
2022/04/02 15:08:11;;;;;;;;;;;6.80;62.90;;;;;;6251480;22;19903;-86
2022/04/02 15:11:31;;;;;;;;;;;;;;;;;;;;;
2022/04/02 15:14:34;;;;;;;;;;;;;;;;;;;;;
2022/04/02 15:20:21;;;;;;;;;;;6.90;62.90;;;;;;6257797;22;20385;-83
2022/04/02 15:23:20;;;;;;;;;;;6.90;63.70;;;;;;6252917;22;19983;-84
2022/04/02 15:28:43;;;;;;;;;;;6.90;64.60;;;;;;6302578;22;19903;-82
2022/04/02 15:31:11;;;;;;;;;;;7.00;64.70;;;;;;6272237;22;19910;-84
2022/04/02 15:34:04;;;;;;;;;;;7.00;62.80;;;;;;6246435;22;19915;-84
2022/04/02 15:36:40;;;;;;;;;;;6.90;62.70;;;;;;6261927;22;19907;-84
2022/04/02 15:39:25;;;;;;;;;;;6.90;62.20;;;;;;6250639;22;20230;-85
2022/04/02 15:42:04;;;;;;;;;;;6.90;62.30;;;;;;6249769;22;19910;-85
2022/04/02 15:44:32;;;;;;;;;;;6.90;62.70;;;;;;6226544;22;20384;-84
2022/04/02 15:47:21;;;;;;;;;;;6.90;63.10;;;;;;6249391;22;20307;-84
2022/04/02 15:49:47;;;;;;;;;;;6.90;63.50;;;;;;6249786;22;19904;-84
2022/04/02 15:52:24;;;;;;;;;;;6.90;64.00;;;;;;6225228;22;19930;-84
2022/04/02 15:54:53;;;;;;;;;;;6.80;63.80;;;;;;6224740;22;20202;-84
2022/04/02 15:57:21;;;;;;;;;;;6.80;64.00;;;;;;6249572;22;19911;-85
2022/04/02 15:59:50;;;;;;;;;;;6.80;64.60;;;;;;6224833;22;19918;-85
2022/04/02 16:02:34;;;;;;;;;;;6.80;65.00;;;;;;6249665;22;19903;-85
2022/04/02 16:05:09;;;;;;;;;;;6.80;64.40;;;;;;6249673;22;19904;-84
2022/04/02 16:07:38;;;;;;;;;;;6.70;64.30;;;;;;6249538;22;19911;-85
2022/04/02 16:10:19;;;;;;;;;;;6.60;64.60;;;;;;6250191;22;19930;-85
2022/04/02 16:12:45;;;;;;;;;;;6.60;64.80;;;;;;6250849;22;19910;-85
2022/04/02 16:15:39;;;;;;;;;;;6.60;64.70;;;;;;6249281;22;19911;-85
2022/04/02 16:18:14;;;;;;;;;;;6.60;64.80;;;;;;6220574;23;20322;-85
2022/04/02 16:20:58;;;;;;;;;;;6.60;65.00;;;;;;6245730;23;20372;-85
2022/04/02 16:23:25;;;;;;;;;;;6.60;65.10;;;;;;6245106;23;19904;-85
2022/04/02 16:26:01;;;;;;;;;;;6.60;65.00;;;;;;6245142;22;20344;-85
2022/04/02 16:28:31;;;;;;;;;;;6.60;65.00;;;;;;6249364;22;19939;-85
2022/04/02 16:31:01;;;;;;;;;;;6.60;64.40;;;;;;6249943;22;19904;-86
2022/04/02 16:33:50;;;;;;;;;;;6.50;64.40;;;;;;6251274;22;20129;-85
2022/04/02 16:36:21;;;;;;;;;;;6.60;64.80;;;;;;6225413;22;19915;-85
2022/04/02 16:38:54;;;;;;;;;;;6.60;63.80;;;;;;6249793;22;20310;-85
2022/04/02 16:41:39;;;;;;;;;;;6.60;63.90;;;;;;6252173;22;19904;-85
2022/04/02 16:44:21;;;;;;;;;;;6.60;63.90;;;;;;6278888;22;20277;-85
2022/04/02 16:46:49;;;;;;;;;;;6.60;64.60;;;;;;6253039;22;19986;-85
2022/04/02 16:49:17;;;;;;;;;;;6.70;64.90;;;;;;6253941;22;19904;-85
2022/04/02 16:51:45;;;;;;;;;;;6.70;64.40;;;;;;6255354;22;19938;-85
2022/04/02 16:54:13;;;;;;;;;;;6.70;64.30;;;;;;6283001;22;19907;-85
2022/04/02 16:56:39;;;;;;;;;;;6.70;64.90;;;;;;6280453;22;19922;-86
2022/04/02 16:59:11;;;;;;;;;;;6.60;66.60;;;;;;6306178;22;19931;-85
2022/04/02 17:01:37;;;;;;;;;;;6.60;66.30;;;;;;6279686;22;19914;-82
2022/04/02 17:04:08;;;;;;;;;;;6.50;66.60;;;;;;6264916;22;19910;-85
2022/04/02 17:06:36;;;;;;;;;;;6.50;66.10;;;;;;6228495;22;20246;-85
2022/04/02 17:09:08;;;;;;;;;;;6.50;65.50;;;;;;6252446;22;19910;-85
2022/04/02 17:11:40;;;;;;;;;;;6.40;65.50;;;;;;6227786;22;19908;-85
2022/04/02 17:14:11;;;;;;;;;;;6.40;65.70;;;;;;6251743;22;19961;-85
2022/04/02 17:16:39;;;;;;;;;;;6.40;64.90;;;;;;6227438;22;19994;-85
2022/04/02 17:19:24;;;;;;;;;;;6.40;64.60;;;;;;6252280;22;20305;-85
2022/04/02 17:21:52;;;;;;;;;;;6.40;64.80;;;;;;6251839;22;19903;-85
2022/04/02 17:24:21;;;;;;;;;;;6.40;65.10;;;;;;6226795;22;19918;-85
2022/04/02 17:26:46;;;;;;;;;;;6.50;65.20;;;;;;6251334;22;19926;-85
2022/04/02 17:29:16;;;;;;;;;;;6.40;63.90;;;;;;6251749;22;20337;-85
2022/04/02 17:31:42;;;;;;;;;;;6.30;63.80;;;;;;6251933;22;19910;-85
2022/04/02 17:34:16;;;;;;;;;;;6.30;64.00;;;;;;6251663;22;19903;-85
2022/04/02 17:36:42;;;;;;;;;;;6.30;64.00;;;;;;6251317;22;20325;-85
2022/04/02 17:39:09;;;;;;;;;;;6.30;64.20;;;;;;6250794;22;19982;-85
2022/04/02 17:41:38;;;;;;;;;;;6.30;64.30;;;;;;6279477;22;19903;-85
2022/04/02 17:44:23;;;;;;;;;;;6.20;63.80;;;;;;6226378;22;20289;-85
2022/04/02 17:47:07;;;;;;;;;;;6.20;64.20;;;;;;6251335;22;19950;-85
2022/04/02 17:49:36;;;;;;;;;;;6.20;64.50;;;;;;6251561;22;19904;-85
2022/04/02 17:52:20;;;;;;;;;;;6.20;64.50;;;;;;6251016;22;19949;-85
2022/04/02 17:54:56;;;;;;;;;;;6.10;64.60;;;;;;6251279;22;20318;-85
2022/04/02 17:57:25;;;;;;;;;;;6.10;64.80;;;;;;6251284;22;19917;-85
2022/04/02 17:59:55;;;;;;;;;;;6.10;64.70;;;;;;6226839;22;19908;-85
2022/04/02 18:02:24;;;;;;;;;;;6.10;64.90;;;;;;6251167;22;19910;-85
2022/04/02 18:04:56;;;;;;;;;;;6.10;65.20;;;;;;6278514;22;19959;-84
2022/04/02 18:07:27;;;;;;;;;;;6.10;65.30;;;;;;6250720;22;19994;-85
2022/04/02 18:09:52;;;;;;;;;;;6.00;65.10;;;;;;6227086;22;20369;-85
2022/04/02 18:12:19;;;;;;;;;;;6.00;65.10;;;;;;6251769;22;19970;-85
2022/04/02 18:15:06;;;;;;;;;;;6.00;64.80;;;;;;6251910;22;19929;-85
2022/04/02 18:17:37;;;;;;;;;;;6.00;64.90;;;;;;6252226;22;19919;-88
2022/04/02 18:20:03;;;;;;;;;;;5.90;65.10;;;;;;6252367;22;20261;-86
2022/04/02 18:22:31;;;;;;;;;;;6.00;65.00;;;;;;6263786;22;19927;-86
2022/04/02 18:25:01;;;;;;;;;;;5.90;65.00;;;;;;6279659;22;19891;-85
2022/04/02 18:27:26;;;;;;;;;;;5.90;65.30;;;;;;6278960;22;19907;-86
2022/04/02 18:29:55;;;;;;;;;;;6.00;65.60;;;;;;6278774;22;19931;-85
2022/04/02 18:32:30;;;;;;;;;;;6.00;64.80;;;;;;6253923;22;19903;-85